METAR rapporten vliegvelden

   
LEMG - Malaga
Gewijzigd: 23-01-2018 04:30
Helder  
Helder  
   Wind: WNW 14.8 km/h
Wind: WNW 14.8 km/h
Temperatuur: 12°C
Dauwpunt: 8°C
Vochtigheid: 77%
Barometer: 1024 hPa
Zicht: meer dan 10 km
Bewolking: Helder
LEMG 230330Z 30008KT CAVOK 12/08 Q1024 NOSIG
LEAL - Alicante
Gewijzigd: 23-01-2018 04:30
Helder  
Helder  
   Wind: WNW 9.3 km/h
Wind: WNW 9.3 km/h
Temperatuur: 12°C
Dauwpunt: 5°C
Vochtigheid: 63%
Barometer: 1024 hPa
Zicht: meer dan 10 km
Bewolking: Helder
LEAL 230330Z 29005KT 260V320 CAVOK 12/05 Q1024 NOSIG
LEBB - Bilbao
Gewijzigd: 23-01-2018 04:30
Nevel, Grotendeels bewolkt  
Nevel, Grotendeels bewolkt  
   Wind: varieert 3.7 km/h
Wind: varieert 3.7 km/h
Temperatuur: 12°C
Dauwpunt: 12°C
Vochtigheid: 100%
Barometer: 1029 hPa
Bewolking: Grotendeels bewolkt
Zicht: 3 km
Bewolking: Grotendeels bewolkt 3500 ft
LEBB 230330Z AUTO VRB02KT 3200 BR BKN035/// 12/12 Q1029
GCTS - Tenerife
Gewijzigd: 23-01-2018 04:30
Licht bewolkt  
Licht bewolkt  
   Wind: ONO 25.9 km/h
Wind: ONO 25.9 km/h
Temperatuur: 16°C
Dauwpunt: 10°C
Vochtigheid: 68%
Barometer: 1024 hPa
Bewolking: Licht bewolkt
Zicht: meer dan 10 km
Bewolking: Licht bewolkt 3000 ft
GCTS 230330Z 07014KT 9999 FEW030 16/10 Q1024 NOSIG
EIDW - Dublin
Gewijzigd: 23-01-2018 04:30
Wat regen mogelijk, Bewolking  
Wat regen mogelijk, Bewolking  
   Wind: ZZW 20.4 km/h
Wind: ZZW 20.4 km/h
Temperatuur: 11°C
Dauwpunt: 9°C
Vochtigheid: 88%
Barometer: 1005 hPa
Bewolking: Bewolking
Zicht: meer dan 10 km
Bewolking: Licht bewolkt 1200 ft,
Gedeeltelijk bewolkt 1400 ft,
Bewolking 1600 ft
EIDW 230330Z 21011KT 9999 -RA FEW012 SCT014 OVC016 11/09 Q1005 NOSIG
LPFR - Albufeira
Gewijzigd: 23-01-2018 04:30
Helder  
Helder  
   Wind: NNW 5.6 km/h
Wind: NNW 5.6 km/h
Temperatuur: 9°C
Voelt als: 8°C
Dauwpunt: 8°C
Vochtigheid: 94%
Barometer: 1027 hPa
Zicht: meer dan 10 km
Bewolking: Helder
LPFR 230330Z 33003KT 300V040 CAVOK 09/08 Q1027

Script ontwikkeld door  Saratoga-weather.org Aangepast voor de template door  Weerstation Leuven

U vindt ons ook hier:

Het Weer Aktueel

European Weather Network

WeatherCloud

Weather Underground

Benelux Weer Netwerk

WeatherlinkIP

Apparatuur in gebruik:

Weerstation
Davis VP2

Weerprogramma
consoleWD

Weercomputer
Raspberry

Gesponsord door
Stef van Bakel koeltechniek

Davis VP2

consoleWD

Raspberry

Stef van Bakel koeltechniek